sensor_id;sensor_type;location;lat;lon;timestamp;P1;durP1;ratioP1;P2;durP2;ratioP2
3379;SDS011;1703;51.964;7.642;2023-06-26T00:00:48;9.23;;;8.33;;
3379;SDS011;1703;51.964;7.642;2023-06-26T00:03:15;9.90;;;8.90;;
3379;SDS011;1703;51.964;7.642;2023-06-26T00:05:42;8.67;;;7.83;;
3379;SDS011;1703;51.964;7.642;2023-06-26T00:08:09;10.27;;;8.60;;
3379;SDS011;1703;51.964;7.642;2023-06-26T00:10:36;9.63;;;8.70;;
3379;SDS011;1703;51.964;7.642;2023-06-26T00:13:03;11.37;;;8.67;;
3379;SDS011;1703;51.964;7.642;2023-06-26T00:15:31;10.10;;;8.87;;
3379;SDS011;1703;51.964;7.642;2023-06-26T00:17:58;10.10;;;9.10;;
3379;SDS011;1703;51.964;7.642;2023-06-26T00:20:24;8.00;;;7.30;;
3379;SDS011;1703;51.964;7.642;2023-06-26T00:22:52;9.63;;;8.63;;
3379;SDS011;1703;51.964;7.642;2023-06-26T00:25:20;10.83;;;9.77;;
3379;SDS011;1703;51.964;7.642;2023-06-26T00:27:47;10.20;;;9.30;;
3379;SDS011;1703;51.964;7.642;2023-06-26T00:30:14;11.23;;;8.67;;
3379;SDS011;1703;51.964;7.642;2023-06-26T00:32:42;9.47;;;8.57;;
3379;SDS011;1703;51.964;7.642;2023-06-26T00:35:09;12.93;;;9.33;;
3379;SDS011;1703;51.964;7.642;2023-06-26T00:37:36;10.20;;;9.20;;
3379;SDS011;1703;51.964;7.642;2023-06-26T00:40:03;8.73;;;7.83;;
3379;SDS011;1703;51.964;7.642;2023-06-26T00:42:31;11.10;;;10.10;;
3379;SDS011;1703;51.964;7.642;2023-06-26T00:44:58;9.83;;;8.93;;
3379;SDS011;1703;51.964;7.642;2023-06-26T00:47:25;11.23;;;9.27;;
3379;SDS011;1703;51.964;7.642;2023-06-26T00:49:54;9.33;;;8.43;;
3379;SDS011;1703;51.964;7.642;2023-06-26T00:52:22;9.40;;;8.50;;
3379;SDS011;1703;51.964;7.642;2023-06-26T00:54:50;11.37;;;9.13;;
3379;SDS011;1703;51.964;7.642;2023-06-26T00:57:17;9.90;;;8.90;;
3379;SDS011;1703;51.964;7.642;2023-06-26T00:59:44;10.23;;;9.27;;
3379;SDS011;1703;51.964;7.642;2023-06-26T01:02:11;10.00;;;9.00;;
3379;SDS011;1703;51.964;7.642;2023-06-26T01:04:45;10.97;;;9.37;;
3379;SDS011;1703;51.964;7.642;2023-06-26T01:07:14;11.00;;;8.80;;
3379;SDS011;1703;51.964;7.642;2023-06-26T01:09:44;11.23;;;9.40;;
3379;SDS011;1703;51.964;7.642;2023-06-26T01:12:12;11.87;;;9.10;;
3379;SDS011;1703;51.964;7.642;2023-06-26T01:14:39;11.87;;;9.57;;
3379;SDS011;1703;51.964;7.642;2023-06-26T01:17:06;10.40;;;8.50;;
3379;SDS011;1703;51.964;7.642;2023-06-26T01:19:37;8.97;;;8.13;;
3379;SDS011;1703;51.964;7.642;2023-06-26T01:22:08;9.47;;;8.13;;
3379;SDS011;1703;51.964;7.642;2023-06-26T01:24:56;10.40;;;8.60;;
3379;SDS011;1703;51.964;7.642;2023-06-26T01:27:36;9.53;;;8.63;;
3379;SDS011;1703;51.964;7.642;2023-06-26T01:30:04;9.70;;;8.90;;
3379;SDS011;1703;51.964;7.642;2023-06-26T01:32:34;13.27;;;9.10;;
3379;SDS011;1703;51.964;7.642;2023-06-26T01:35:02;10.43;;;9.53;;
3379;SDS011;1703;51.964;7.642;2023-06-26T01:37:29;11.20;;;10.00;;
3379;SDS011;1703;51.964;7.642;2023-06-26T01:39:56;10.00;;;9.00;;
3379;SDS011;1703;51.964;7.642;2023-06-26T01:42:22;10.20;;;9.10;;
3379;SDS011;1703;51.964;7.642;2023-06-26T01:44:51;9.70;;;8.80;;
3379;SDS011;1703;51.964;7.642;2023-06-26T01:47:22;9.93;;;8.93;;
3379;SDS011;1703;51.964;7.642;2023-06-26T01:49:56;10.43;;;9.43;;
3379;SDS011;1703;51.964;7.642;2023-06-26T01:52:29;10.60;;;9.53;;
3379;SDS011;1703;51.964;7.642;2023-06-26T01:55:05;12.30;;;9.83;;
3379;SDS011;1703;51.964;7.642;2023-06-26T01:57:38;12.43;;;9.80;;
3379;SDS011;1703;51.964;7.642;2023-06-26T02:00:08;10.43;;;9.50;;
3379;SDS011;1703;51.964;7.642;2023-06-26T02:02:40;12.30;;;8.70;;
3379;SDS011;1703;51.964;7.642;2023-06-26T02:05:07;9.77;;;8.70;;
3379;SDS011;1703;51.964;7.642;2023-06-26T02:07:34;16.80;;;9.27;;
3379;SDS011;1703;51.964;7.642;2023-06-26T02:10:02;9.37;;;8.47;;
3379;SDS011;1703;51.964;7.642;2023-06-26T02:12:29;11.07;;;9.37;;
3379;SDS011;1703;51.964;7.642;2023-06-26T02:14:55;10.37;;;9.30;;
3379;SDS011;1703;51.964;7.642;2023-06-26T02:17:25;9.40;;;8.50;;
3379;SDS011;1703;51.964;7.642;2023-06-26T02:19:54;10.73;;;9.70;;
3379;SDS011;1703;51.964;7.642;2023-06-26T02:22:20;11.50;;;8.90;;
3379;SDS011;1703;51.964;7.642;2023-06-26T02:24:47;9.87;;;8.93;;
3379;SDS011;1703;51.964;7.642;2023-06-26T02:27:14;9.93;;;8.83;;
3379;SDS011;1703;51.964;7.642;2023-06-26T02:29:41;9.90;;;8.97;;
3379;SDS011;1703;51.964;7.642;2023-06-26T02:32:08;10.40;;;9.43;;
3379;SDS011;1703;51.964;7.642;2023-06-26T02:34:36;9.27;;;8.37;;
3379;SDS011;1703;51.964;7.642;2023-06-26T02:37:03;10.50;;;8.70;;
3379;SDS011;1703;51.964;7.642;2023-06-26T02:39:32;11.80;;;10.30;;
3379;SDS011;1703;51.964;7.642;2023-06-26T02:42:00;9.97;;;9.10;;
3379;SDS011;1703;51.964;7.642;2023-06-26T02:44:27;9.00;;;8.10;;
3379;SDS011;1703;51.964;7.642;2023-06-26T02:46:53;10.83;;;9.10;;
3379;SDS011;1703;51.964;7.642;2023-06-26T02:49:20;9.50;;;8.60;;
3379;SDS011;1703;51.964;7.642;2023-06-26T02:51:48;10.37;;;9.37;;
3379;SDS011;1703;51.964;7.642;2023-06-26T02:54:25;13.13;;;11.73;;
3379;SDS011;1703;51.964;7.642;2023-06-26T02:56:55;9.83;;;8.93;;
3379;SDS011;1703;51.964;7.642;2023-06-26T02:59:27;11.73;;;9.10;;
3379;SDS011;1703;51.964;7.642;2023-06-26T03:01:55;9.30;;;8.37;;
3379;SDS011;1703;51.964;7.642;2023-06-26T03:04:28;9.03;;;8.13;;
3379;SDS011;1703;51.964;7.642;2023-06-26T03:06:58;9.83;;;8.83;;
3379;SDS011;1703;51.964;7.642;2023-06-26T03:09:24;8.70;;;7.90;;
3379;SDS011;1703;51.964;7.642;2023-06-26T03:11:51;10.77;;;8.83;;
3379;SDS011;1703;51.964;7.642;2023-06-26T03:14:20;9.20;;;8.20;;
3379;SDS011;1703;51.964;7.642;2023-06-26T03:16:47;10.87;;;8.10;;
3379;SDS011;1703;51.964;7.642;2023-06-26T03:19:16;13.60;;;8.37;;
3379;SDS011;1703;51.964;7.642;2023-06-26T03:22:04;12.27;;;7.93;;
3379;SDS011;1703;51.964;7.642;2023-06-26T03:24:31;9.37;;;8.40;;
3379;SDS011;1703;51.964;7.642;2023-06-26T03:26:58;10.80;;;9.70;;
3379;SDS011;1703;51.964;7.642;2023-06-26T03:29:26;8.77;;;7.87;;
3379;SDS011;1703;51.964;7.642;2023-06-26T03:31:54;9.03;;;7.83;;
3379;SDS011;1703;51.964;7.642;2023-06-26T03:34:22;9.60;;;8.77;;
3379;SDS011;1703;51.964;7.642;2023-06-26T03:36:49;10.67;;;9.20;;
3379;SDS011;1703;51.964;7.642;2023-06-26T03:39:18;8.97;;;8.07;;
3379;SDS011;1703;51.964;7.642;2023-06-26T03:41:44;11.87;;;8.57;;
3379;SDS011;1703;51.964;7.642;2023-06-26T03:44:11;9.53;;;8.27;;
3379;SDS011;1703;51.964;7.642;2023-06-26T03:46:45;9.20;;;7.93;;
3379;SDS011;1703;51.964;7.642;2023-06-26T03:49:12;8.60;;;7.70;;
3379;SDS011;1703;51.964;7.642;2023-06-26T03:51:39;10.30;;;8.30;;
3379;SDS011;1703;51.964;7.642;2023-06-26T03:54:06;8.97;;;8.17;;
3379;SDS011;1703;51.964;7.642;2023-06-26T03:56:34;8.93;;;8.03;;
3379;SDS011;1703;51.964;7.642;2023-06-26T03:59:01;8.37;;;7.43;;
3379;SDS011;1703;51.964;7.642;2023-06-26T04:01:28;10.47;;;9.17;;
3379;SDS011;1703;51.964;7.642;2023-06-26T04:03:55;13.47;;;9.00;;
3379;SDS011;1703;51.964;7.642;2023-06-26T04:06:21;10.17;;;9.27;;
3379;SDS011;1703;51.964;7.642;2023-06-26T04:08:48;15.70;;;8.47;;
3379;SDS011;1703;51.964;7.642;2023-06-26T04:11:15;10.10;;;8.00;;
3379;SDS011;1703;51.964;7.642;2023-06-26T04:13:43;10.60;;;8.63;;
3379;SDS011;1703;51.964;7.642;2023-06-26T04:16:10;8.60;;;7.53;;
3379;SDS011;1703;51.964;7.642;2023-06-26T04:18:37;9.40;;;8.50;;
3379;SDS011;1703;51.964;7.642;2023-06-26T04:21:05;9.80;;;8.17;;
3379;SDS011;1703;51.964;7.642;2023-06-26T04:23:34;11.43;;;7.90;;
3379;SDS011;1703;51.964;7.642;2023-06-26T04:26:01;10.30;;;7.50;;
3379;SDS011;1703;51.964;7.642;2023-06-26T04:28:30;9.67;;;6.80;;
3379;SDS011;1703;51.964;7.642;2023-06-26T04:30:58;10.67;;;7.10;;
3379;SDS011;1703;51.964;7.642;2023-06-26T04:33:25;11.97;;;7.77;;
3379;SDS011;1703;51.964;7.642;2023-06-26T04:35:52;9.27;;;8.33;;
3379;SDS011;1703;51.964;7.642;2023-06-26T04:38:19;8.87;;;7.90;;
3379;SDS011;1703;51.964;7.642;2023-06-26T04:40:47;12.23;;;9.00;;
3379;SDS011;1703;51.964;7.642;2023-06-26T04:43:14;10.40;;;8.50;;
3379;SDS011;1703;51.964;7.642;2023-06-26T04:45:41;18.73;;;10.53;;
3379;SDS011;1703;51.964;7.642;2023-06-26T04:48:09;11.50;;;8.83;;
3379;SDS011;1703;51.964;7.642;2023-06-26T04:50:36;9.53;;;8.17;;
3379;SDS011;1703;51.964;7.642;2023-06-26T04:53:03;9.37;;;8.47;;
3379;SDS011;1703;51.964;7.642;2023-06-26T04:55:30;9.97;;;8.03;;
3379;SDS011;1703;51.964;7.642;2023-06-26T04:57:56;9.83;;;8.57;;
3379;SDS011;1703;51.964;7.642;2023-06-26T05:00:23;13.07;;;10.20;;
3379;SDS011;1703;51.964;7.642;2023-06-26T05:02:50;12.40;;;9.80;;
3379;SDS011;1703;51.964;7.642;2023-06-26T05:05:26;14.60;;;10.60;;
3379;SDS011;1703;51.964;7.642;2023-06-26T05:07:54;9.53;;;8.63;;
3379;SDS011;1703;51.964;7.642;2023-06-26T05:10:21;12.83;;;10.20;;
3379;SDS011;1703;51.964;7.642;2023-06-26T05:12:48;12.63;;;11.33;;
3379;SDS011;1703;51.964;7.642;2023-06-26T05:15:15;12.13;;;10.67;;
3379;SDS011;1703;51.964;7.642;2023-06-26T05:17:42;15.47;;;11.03;;
3379;SDS011;1703;51.964;7.642;2023-06-26T05:20:09;12.70;;;10.50;;
3379;SDS011;1703;51.964;7.642;2023-06-26T05:22:38;13.83;;;11.57;;
3379;SDS011;1703;51.964;7.642;2023-06-26T05:25:06;13.13;;;11.73;;
3379;SDS011;1703;51.964;7.642;2023-06-26T05:27:35;11.80;;;10.60;;
3379;SDS011;1703;51.964;7.642;2023-06-26T05:30:02;14.30;;;10.90;;
3379;SDS011;1703;51.964;7.642;2023-06-26T05:32:30;13.77;;;12.37;;
3379;SDS011;1703;51.964;7.642;2023-06-26T05:34:59;13.77;;;12.40;;
3379;SDS011;1703;51.964;7.642;2023-06-26T05:37:27;22.83;;;12.57;;
3379;SDS011;1703;51.964;7.642;2023-06-26T05:39:56;12.63;;;11.43;;
3379;SDS011;1703;51.964;7.642;2023-06-26T05:42:23;22.60;;;12.60;;
3379;SDS011;1703;51.964;7.642;2023-06-26T05:44:53;16.57;;;12.10;;
3379;SDS011;1703;51.964;7.642;2023-06-26T05:47:19;15.47;;;10.50;;
3379;SDS011;1703;51.964;7.642;2023-06-26T05:49:47;20.17;;;12.23;;
3379;SDS011;1703;51.964;7.642;2023-06-26T05:52:14;16.73;;;11.90;;
3379;SDS011;1703;51.964;7.642;2023-06-26T05:54:41;16.20;;;11.93;;
3379;SDS011;1703;51.964;7.642;2023-06-26T05:57:10;13.73;;;10.90;;
3379;SDS011;1703;51.964;7.642;2023-06-26T05:59:39;16.83;;;11.10;;
3379;SDS011;1703;51.964;7.642;2023-06-26T06:02:07;13.17;;;11.03;;
3379;SDS011;1703;51.964;7.642;2023-06-26T06:04:33;15.33;;;11.37;;
3379;SDS011;1703;51.964;7.642;2023-06-26T06:07:02;18.40;;;12.57;;
3379;SDS011;1703;51.964;7.642;2023-06-26T06:09:29;15.63;;;11.70;;
3379;SDS011;1703;51.964;7.642;2023-06-26T06:11:56;14.23;;;10.17;;
3379;SDS011;1703;51.964;7.642;2023-06-26T06:14:24;15.20;;;10.63;;
3379;SDS011;1703;51.964;7.642;2023-06-26T06:16:51;17.67;;;11.13;;
3379;SDS011;1703;51.964;7.642;2023-06-26T06:19:18;14.33;;;10.40;;
3379;SDS011;1703;51.964;7.642;2023-06-26T06:21:45;11.83;;;9.23;;
3379;SDS011;1703;51.964;7.642;2023-06-26T06:24:12;17.33;;;10.57;;
3379;SDS011;1703;51.964;7.642;2023-06-26T06:26:39;12.20;;;8.07;;
3379;SDS011;1703;51.964;7.642;2023-06-26T06:29:06;17.37;;;8.43;;
3379;SDS011;1703;51.964;7.642;2023-06-26T06:31:34;12.23;;;8.90;;
3379;SDS011;1703;51.964;7.642;2023-06-26T06:34:01;11.00;;;9.23;;
3379;SDS011;1703;51.964;7.642;2023-06-26T06:36:27;10.37;;;7.47;;
3379;SDS011;1703;51.964;7.642;2023-06-26T06:38:54;13.63;;;7.23;;
3379;SDS011;1703;51.964;7.642;2023-06-26T06:41:21;9.73;;;7.40;;
3379;SDS011;1703;51.964;7.642;2023-06-26T06:43:48;10.20;;;7.93;;
3379;SDS011;1703;51.964;7.642;2023-06-26T06:46:15;10.67;;;6.57;;
3379;SDS011;1703;51.964;7.642;2023-06-26T06:48:43;13.73;;;7.47;;
3379;SDS011;1703;51.964;7.642;2023-06-26T06:51:11;10.50;;;6.80;;
3379;SDS011;1703;51.964;7.642;2023-06-26T06:53:38;11.10;;;6.93;;
3379;SDS011;1703;51.964;7.642;2023-06-26T06:56:05;8.47;;;5.57;;
3379;SDS011;1703;51.964;7.642;2023-06-26T06:58:32;7.80;;;6.37;;
3379;SDS011;1703;51.964;7.642;2023-06-26T07:00:59;8.00;;;5.93;;
3379;SDS011;1703;51.964;7.642;2023-06-26T07:03:27;7.03;;;5.63;;
3379;SDS011;1703;51.964;7.642;2023-06-26T07:05:56;15.50;;;7.20;;
3379;SDS011;1703;51.964;7.642;2023-06-26T07:08:23;8.83;;;6.30;;
3379;SDS011;1703;51.964;7.642;2023-06-26T07:10:50;22.40;;;8.10;;
3379;SDS011;1703;51.964;7.642;2023-06-26T07:13:16;15.53;;;7.27;;
3379;SDS011;1703;51.964;7.642;2023-06-26T07:15:44;11.60;;;6.40;;
3379;SDS011;1703;51.964;7.642;2023-06-26T07:18:12;14.70;;;6.70;;
3379;SDS011;1703;51.964;7.642;2023-06-26T07:20:40;9.27;;;6.43;;
3379;SDS011;1703;51.964;7.642;2023-06-26T07:23:08;16.17;;;7.63;;
3379;SDS011;1703;51.964;7.642;2023-06-26T07:25:36;12.50;;;6.60;;
3379;SDS011;1703;51.964;7.642;2023-06-26T07:28:03;16.00;;;8.07;;
3379;SDS011;1703;51.964;7.642;2023-06-26T07:30:29;16.80;;;8.20;;
3379;SDS011;1703;51.964;7.642;2023-06-26T07:32:56;16.23;;;7.70;;
3379;SDS011;1703;51.964;7.642;2023-06-26T07:35:23;14.93;;;7.30;;
3379;SDS011;1703;51.964;7.642;2023-06-26T07:37:52;16.20;;;7.40;;
3379;SDS011;1703;51.964;7.642;2023-06-26T07:40:20;10.37;;;6.17;;
3379;SDS011;1703;51.964;7.642;2023-06-26T07:42:47;16.10;;;8.07;;
3379;SDS011;1703;51.964;7.642;2023-06-26T07:45:15;16.60;;;7.47;;
3379;SDS011;1703;51.964;7.642;2023-06-26T07:47:42;15.50;;;6.20;;
3379;SDS011;1703;51.964;7.642;2023-06-26T07:50:09;17.83;;;8.30;;
3379;SDS011;1703;51.964;7.642;2023-06-26T07:52:36;16.53;;;7.63;;
3379;SDS011;1703;51.964;7.642;2023-06-26T07:55:03;14.30;;;7.27;;
3379;SDS011;1703;51.964;7.642;2023-06-26T07:57:32;12.80;;;6.90;;
3379;SDS011;1703;51.964;7.642;2023-06-26T07:59:59;12.67;;;7.60;;
3379;SDS011;1703;51.964;7.642;2023-06-26T08:02:25;9.90;;;6.50;;
3379;SDS011;1703;51.964;7.642;2023-06-26T08:04:52;15.97;;;7.30;;
3379;SDS011;1703;51.964;7.642;2023-06-26T08:07:19;12.03;;;7.63;;
3379;SDS011;1703;51.964;7.642;2023-06-26T08:09:46;10.63;;;6.37;;
3379;SDS011;1703;51.964;7.642;2023-06-26T08:12:12;12.80;;;5.73;;
3379;SDS011;1703;51.964;7.642;2023-06-26T08:14:41;13.73;;;7.17;;
3379;SDS011;1703;51.964;7.642;2023-06-26T08:17:08;15.47;;;6.53;;
3379;SDS011;1703;51.964;7.642;2023-06-26T08:19:34;9.70;;;7.23;;
3379;SDS011;1703;51.964;7.642;2023-06-26T08:22:01;15.17;;;6.73;;
3379;SDS011;1703;51.964;7.642;2023-06-26T08:24:28;13.60;;;7.17;;
3379;SDS011;1703;51.964;7.642;2023-06-26T08:26:55;13.03;;;6.83;;
3379;SDS011;1703;51.964;7.642;2023-06-26T08:29:22;12.97;;;6.30;;
3379;SDS011;1703;51.964;7.642;2023-06-26T08:31:50;11.47;;;6.17;;
3379;SDS011;1703;51.964;7.642;2023-06-26T08:34:16;17.00;;;6.63;;
3379;SDS011;1703;51.964;7.642;2023-06-26T08:36:43;11.17;;;6.77;;
3379;SDS011;1703;51.964;7.642;2023-06-26T08:39:10;15.43;;;8.50;;
3379;SDS011;1703;51.964;7.642;2023-06-26T08:41:37;13.40;;;6.67;;
3379;SDS011;1703;51.964;7.642;2023-06-26T08:44:04;10.47;;;6.10;;
3379;SDS011;1703;51.964;7.642;2023-06-26T08:46:31;13.80;;;6.33;;
3379;SDS011;1703;51.964;7.642;2023-06-26T08:49:01;9.43;;;6.37;;
3379;SDS011;1703;51.964;7.642;2023-06-26T08:51:34;10.93;;;6.67;;
3379;SDS011;1703;51.964;7.642;2023-06-26T08:54:04;14.60;;;6.43;;
3379;SDS011;1703;51.964;7.642;2023-06-26T08:56:35;13.23;;;6.67;;
3379;SDS011;1703;51.964;7.642;2023-06-26T08:59:03;12.50;;;6.50;;
3379;SDS011;1703;51.964;7.642;2023-06-26T09:01:32;19.20;;;6.07;;
3379;SDS011;1703;51.964;7.642;2023-06-26T09:04:00;14.30;;;6.37;;
3379;SDS011;1703;51.964;7.642;2023-06-26T09:06:27;12.23;;;6.20;;
3379;SDS011;1703;51.964;7.642;2023-06-26T09:08:54;12.90;;;6.10;;
3379;SDS011;1703;51.964;7.642;2023-06-26T09:11:21;11.30;;;5.83;;
3379;SDS011;1703;51.964;7.642;2023-06-26T09:13:48;12.37;;;5.70;;
3379;SDS011;1703;51.964;7.642;2023-06-26T09:16:15;10.10;;;5.93;;
3379;SDS011;1703;51.964;7.642;2023-06-26T09:18:42;20.03;;;7.67;;
3379;SDS011;1703;51.964;7.642;2023-06-26T09:21:10;13.80;;;5.90;;
3379;SDS011;1703;51.964;7.642;2023-06-26T09:23:39;6.00;;;5.43;;
3379;SDS011;1703;51.964;7.642;2023-06-26T09:26:06;15.83;;;6.43;;
3379;SDS011;1703;51.964;7.642;2023-06-26T09:28:34;12.87;;;4.97;;
3379;SDS011;1703;51.964;7.642;2023-06-26T09:31:02;7.40;;;5.03;;
3379;SDS011;1703;51.964;7.642;2023-06-26T09:33:32;5.43;;;4.70;;
3379;SDS011;1703;51.964;7.642;2023-06-26T09:36:01;8.73;;;5.63;;
3379;SDS011;1703;51.964;7.642;2023-06-26T09:38:29;14.63;;;5.30;;
3379;SDS011;1703;51.964;7.642;2023-06-26T09:40:56;11.50;;;5.50;;
3379;SDS011;1703;51.964;7.642;2023-06-26T09:43:23;10.40;;;4.80;;
3379;SDS011;1703;51.964;7.642;2023-06-26T09:45:51;7.63;;;4.90;;
3379;SDS011;1703;51.964;7.642;2023-06-26T09:48:19;13.13;;;4.27;;
3379;SDS011;1703;51.964;7.642;2023-06-26T09:50:46;6.70;;;4.17;;
3379;SDS011;1703;51.964;7.642;2023-06-26T09:53:13;9.47;;;3.83;;
3379;SDS011;1703;51.964;7.642;2023-06-26T09:55:44;9.73;;;5.00;;
3379;SDS011;1703;51.964;7.642;2023-06-26T09:58:12;8.30;;;4.47;;
3379;SDS011;1703;51.964;7.642;2023-06-26T10:00:40;10.00;;;5.03;;
3379;SDS011;1703;51.964;7.642;2023-06-26T10:03:07;8.20;;;4.73;;
3379;SDS011;1703;51.964;7.642;2023-06-26T10:05:34;9.33;;;5.10;;
3379;SDS011;1703;51.964;7.642;2023-06-26T10:08:01;7.27;;;4.10;;
3379;SDS011;1703;51.964;7.642;2023-06-26T10:10:30;5.73;;;4.10;;
3379;SDS011;1703;51.964;7.642;2023-06-26T10:13:02;6.00;;;3.57;;
3379;SDS011;1703;51.964;7.642;2023-06-26T10:15:34;6.33;;;3.60;;
3379;SDS011;1703;51.964;7.642;2023-06-26T10:18:02;3.47;;;2.90;;
3379;SDS011;1703;51.964;7.642;2023-06-26T10:20:30;4.87;;;2.97;;
3379;SDS011;1703;51.964;7.642;2023-06-26T10:22:57;6.53;;;3.30;;
3379;SDS011;1703;51.964;7.642;2023-06-26T10:25:27;5.47;;;3.40;;
3379;SDS011;1703;51.964;7.642;2023-06-26T10:27:55;3.00;;;2.73;;
3379;SDS011;1703;51.964;7.642;2023-06-26T10:30:26;6.53;;;3.30;;
3379;SDS011;1703;51.964;7.642;2023-06-26T10:32:55;3.73;;;3.37;;
3379;SDS011;1703;51.964;7.642;2023-06-26T10:35:23;5.13;;;3.27;;
3379;SDS011;1703;51.964;7.642;2023-06-26T10:37:50;9.20;;;3.33;;
3379;SDS011;1703;51.964;7.642;2023-06-26T10:40:21;6.23;;;3.20;;
3379;SDS011;1703;51.964;7.642;2023-06-26T10:42:51;3.60;;;2.70;;
3379;SDS011;1703;51.964;7.642;2023-06-26T10:45:33;4.63;;;2.87;;
3379;SDS011;1703;51.964;7.642;2023-06-26T10:48:00;5.47;;;2.93;;
3379;SDS011;1703;51.964;7.642;2023-06-26T10:50:27;8.27;;;3.47;;
3379;SDS011;1703;51.964;7.642;2023-06-26T10:53:08;4.27;;;2.97;;
3379;SDS011;1703;51.964;7.642;2023-06-26T10:55:36;7.57;;;2.93;;
3379;SDS011;1703;51.964;7.642;2023-06-26T10:58:03;4.83;;;2.47;;
3379;SDS011;1703;51.964;7.642;2023-06-26T11:00:29;4.47;;;2.80;;
3379;SDS011;1703;51.964;7.642;2023-06-26T11:02:58;7.83;;;3.10;;
3379;SDS011;1703;51.964;7.642;2023-06-26T11:05:26;5.70;;;2.90;;
3379;SDS011;1703;51.964;7.642;2023-06-26T11:08:03;5.90;;;3.00;;
3379;SDS011;1703;51.964;7.642;2023-06-26T11:13:17;3.40;;;3.00;;
3379;SDS011;1703;51.964;7.642;2023-06-26T11:15:45;4.97;;;3.30;;
3379;SDS011;1703;51.964;7.642;2023-06-26T11:18:13;8.43;;;3.33;;
3379;SDS011;1703;51.964;7.642;2023-06-26T11:20:40;4.77;;;3.00;;
3379;SDS011;1703;51.964;7.642;2023-06-26T11:23:07;7.03;;;3.80;;
3379;SDS011;1703;51.964;7.642;2023-06-26T11:25:35;4.43;;;2.83;;
3379;SDS011;1703;51.964;7.642;2023-06-26T11:28:02;4.30;;;3.03;;
3379;SDS011;1703;51.964;7.642;2023-06-26T11:30:30;4.30;;;2.73;;
3379;SDS011;1703;51.964;7.642;2023-06-26T11:33:03;9.80;;;2.60;;
3379;SDS011;1703;51.964;7.642;2023-06-26T11:35:35;2.63;;;2.43;;
3379;SDS011;1703;51.964;7.642;2023-06-26T11:38:06;4.90;;;2.90;;
3379;SDS011;1703;51.964;7.642;2023-06-26T11:40:34;2.80;;;2.60;;
3379;SDS011;1703;51.964;7.642;2023-06-26T11:43:02;2.57;;;2.37;;
3379;SDS011;1703;51.964;7.642;2023-06-26T11:45:29;3.67;;;2.50;;
3379;SDS011;1703;51.964;7.642;2023-06-26T11:47:57;3.50;;;2.77;;
3379;SDS011;1703;51.964;7.642;2023-06-26T11:50:24;4.13;;;2.93;;
3379;SDS011;1703;51.964;7.642;2023-06-26T11:52:55;3.93;;;2.20;;
3379;SDS011;1703;51.964;7.642;2023-06-26T11:55:25;5.50;;;3.47;;
3379;SDS011;1703;51.964;7.642;2023-06-26T11:57:53;5.47;;;3.23;;
3379;SDS011;1703;51.964;7.642;2023-06-26T12:00:22;2.90;;;2.60;;
3379;SDS011;1703;51.964;7.642;2023-06-26T12:02:49;8.17;;;3.00;;
3379;SDS011;1703;51.964;7.642;2023-06-26T12:05:17;10.43;;;3.20;;
3379;SDS011;1703;51.964;7.642;2023-06-26T12:07:45;4.17;;;3.13;;
3379;SDS011;1703;51.964;7.642;2023-06-26T12:10:15;4.80;;;3.53;;
3379;SDS011;1703;51.964;7.642;2023-06-26T12:12:43;4.37;;;2.70;;
3379;SDS011;1703;51.964;7.642;2023-06-26T12:15:12;5.90;;;3.00;;
3379;SDS011;1703;51.964;7.642;2023-06-26T12:17:40;6.13;;;2.90;;
3379;SDS011;1703;51.964;7.642;2023-06-26T12:20:16;7.40;;;3.30;;
3379;SDS011;1703;51.964;7.642;2023-06-26T12:22:45;2.70;;;2.50;;
3379;SDS011;1703;51.964;7.642;2023-06-26T12:25:12;5.33;;;2.63;;
3379;SDS011;1703;51.964;7.642;2023-06-26T12:27:40;4.10;;;3.50;;
3379;SDS011;1703;51.964;7.642;2023-06-26T12:30:10;4.67;;;3.23;;
3379;SDS011;1703;51.964;7.642;2023-06-26T12:32:38;3.40;;;3.03;;
3379;SDS011;1703;51.964;7.642;2023-06-26T12:35:05;2.70;;;2.50;;
3379;SDS011;1703;51.964;7.642;2023-06-26T12:37:36;3.17;;;2.10;;
3379;SDS011;1703;51.964;7.642;2023-06-26T12:40:03;8.90;;;2.77;;
3379;SDS011;1703;51.964;7.642;2023-06-26T12:42:34;6.40;;;2.60;;
3379;SDS011;1703;51.964;7.642;2023-06-26T12:45:09;8.20;;;2.47;;
3379;SDS011;1703;51.964;7.642;2023-06-26T12:47:37;2.97;;;1.73;;
3379;SDS011;1703;51.964;7.642;2023-06-26T12:50:06;5.83;;;2.00;;
3379;SDS011;1703;51.964;7.642;2023-06-26T12:52:34;4.00;;;2.10;;
3379;SDS011;1703;51.964;7.642;2023-06-26T12:55:00;3.30;;;2.20;;
3379;SDS011;1703;51.964;7.642;2023-06-26T12:57:27;3.20;;;2.20;;
3379;SDS011;1703;51.964;7.642;2023-06-26T12:59:55;3.43;;;1.60;;
3379;SDS011;1703;51.964;7.642;2023-06-26T13:02:22;8.60;;;1.60;;
3379;SDS011;1703;51.964;7.642;2023-06-26T13:04:49;3.77;;;1.83;;
3379;SDS011;1703;51.964;7.642;2023-06-26T13:07:16;3.30;;;2.10;;
3379;SDS011;1703;51.964;7.642;2023-06-26T13:09:43;5.67;;;1.67;;
3379;SDS011;1703;51.964;7.642;2023-06-26T13:12:10;2.13;;;1.77;;
3379;SDS011;1703;51.964;7.642;2023-06-26T13:14:37;4.27;;;1.90;;
3379;SDS011;1703;51.964;7.642;2023-06-26T13:17:06;7.23;;;1.57;;
3379;SDS011;1703;51.964;7.642;2023-06-26T13:19:32;3.10;;;1.57;;
3379;SDS011;1703;51.964;7.642;2023-06-26T13:21:59;9.33;;;2.20;;
3379;SDS011;1703;51.964;7.642;2023-06-26T13:24:26;2.30;;;1.80;;
3379;SDS011;1703;51.964;7.642;2023-06-26T13:26:53;2.23;;;1.57;;
3379;SDS011;1703;51.964;7.642;2023-06-26T13:29:19;7.30;;;4.60;;
3379;SDS011;1703;51.964;7.642;2023-06-26T13:31:46;4.70;;;2.57;;
3379;SDS011;1703;51.964;7.642;2023-06-26T13:34:20;6.67;;;3.60;;
3379;SDS011;1703;51.964;7.642;2023-06-26T13:36:48;2.20;;;1.90;;
3379;SDS011;1703;51.964;7.642;2023-06-26T13:39:15;3.23;;;2.10;;
3379;SDS011;1703;51.964;7.642;2023-06-26T13:41:42;5.73;;;2.10;;
3379;SDS011;1703;51.964;7.642;2023-06-26T13:44:08;4.97;;;2.23;;
3379;SDS011;1703;51.964;7.642;2023-06-26T13:46:35;4.10;;;1.50;;
3379;SDS011;1703;51.964;7.642;2023-06-26T13:49:02;4.70;;;2.03;;
3379;SDS011;1703;51.964;7.642;2023-06-26T13:51:30;4.63;;;1.70;;
3379;SDS011;1703;51.964;7.642;2023-06-26T13:53:57;3.80;;;1.80;;
3379;SDS011;1703;51.964;7.642;2023-06-26T13:56:25;6.00;;;1.80;;
3379;SDS011;1703;51.964;7.642;2023-06-26T13:58:53;3.40;;;2.00;;
3379;SDS011;1703;51.964;7.642;2023-06-26T14:01:20;2.70;;;1.63;;
3379;SDS011;1703;51.964;7.642;2023-06-26T14:03:46;4.70;;;1.73;;
3379;SDS011;1703;51.964;7.642;2023-06-26T14:06:13;3.57;;;1.80;;
3379;SDS011;1703;51.964;7.642;2023-06-26T14:08:41;5.70;;;1.87;;
3379;SDS011;1703;51.964;7.642;2023-06-26T14:11:08;1.77;;;1.33;;
3379;SDS011;1703;51.964;7.642;2023-06-26T14:13:35;8.17;;;2.60;;
3379;SDS011;1703;51.964;7.642;2023-06-26T14:16:02;2.40;;;2.20;;
3379;SDS011;1703;51.964;7.642;2023-06-26T14:18:30;1.80;;;1.43;;
3379;SDS011;1703;51.964;7.642;2023-06-26T14:20:56;2.90;;;1.30;;
3379;SDS011;1703;51.964;7.642;2023-06-26T14:23:23;5.30;;;1.63;;
3379;SDS011;1703;51.964;7.642;2023-06-26T14:25:51;2.60;;;1.70;;
3379;SDS011;1703;51.964;7.642;2023-06-26T14:28:18;1.80;;;1.43;;
3379;SDS011;1703;51.964;7.642;2023-06-26T14:30:45;2.17;;;1.27;;
3379;SDS011;1703;51.964;7.642;2023-06-26T14:33:11;3.63;;;1.70;;
3379;SDS011;1703;51.964;7.642;2023-06-26T14:35:38;1.70;;;1.20;;
3379;SDS011;1703;51.964;7.642;2023-06-26T14:38:05;4.40;;;1.87;;
3379;SDS011;1703;51.964;7.642;2023-06-26T14:40:32;3.40;;;1.50;;
3379;SDS011;1703;51.964;7.642;2023-06-26T14:43:00;2.70;;;1.40;;
3379;SDS011;1703;51.964;7.642;2023-06-26T14:45:27;2.20;;;1.47;;
3379;SDS011;1703;51.964;7.642;2023-06-26T14:47:53;1.50;;;1.40;;
3379;SDS011;1703;51.964;7.642;2023-06-26T14:50:20;1.93;;;1.53;;
3379;SDS011;1703;51.964;7.642;2023-06-26T14:52:47;1.20;;;1.10;;
3379;SDS011;1703;51.964;7.642;2023-06-26T14:55:13;2.40;;;1.60;;
3379;SDS011;1703;51.964;7.642;2023-06-26T14:57:40;5.33;;;1.80;;
3379;SDS011;1703;51.964;7.642;2023-06-26T15:00:09;4.70;;;2.03;;
3379;SDS011;1703;51.964;7.642;2023-06-26T15:02:37;1.43;;;1.33;;
3379;SDS011;1703;51.964;7.642;2023-06-26T15:05:04;7.03;;;1.80;;
3379;SDS011;1703;51.964;7.642;2023-06-26T15:07:31;1.83;;;1.00;;
3379;SDS011;1703;51.964;7.642;2023-06-26T15:09:57;6.20;;;1.30;;
3379;SDS011;1703;51.964;7.642;2023-06-26T15:12:25;1.90;;;1.43;;
3379;SDS011;1703;51.964;7.642;2023-06-26T15:14:52;1.60;;;1.50;;